Time;durP1;ratioP1;P1;durP2;ratioP2;P2;SDS_P1;SDS_P2;PMS_P1;PMS_P2;Temp;Humidity;BMP_temperature;BMP_pressure;BME280_temperature;BME280_humidity;BME280_pressure;Samples;Min_cycle;Max_cycle;Signal;HPM_P1;HPM_P2
2022/12/04 00:00:54;;;;;;;31.27;24.60;;;;;;;;;;4964616;28;20575;-86
2022/12/04 00:03:20;;;;;;;34.70;26.27;;;;;;;;;;4958660;28;20780;-86
2022/12/04 00:05:46;;;;;;;35.17;25.30;;;;;;;;;;4977622;28;20635;-86
2022/12/04 00:08:13;;;;;;;33.53;25.23;;;;;;;;;;4939424;28;20223;-84
2022/12/04 00:10:42;;;;;;;34.07;23.70;;;;;;;;;;4952853;28;20233;-84
2022/12/04 00:13:12;;;;;;;34.10;26.33;;;;;;;;;;4929777;28;20228;-84
2022/12/04 00:15:44;;;;;;;37.63;25.83;;;;;;;;;;4944932;28;20614;-86
2022/12/04 00:18:09;;;;;;;34.83;24.73;;;;;;;;;;4928226;28;20221;-88
2022/12/04 00:20:40;;;;;;;34.13;26.20;;;;;;;;;;4928789;28;20244;-87
2022/12/04 00:23:07;;;;;;;30.27;24.60;;;;;;;;;;4929611;28;20229;-86
2022/12/04 00:25:35;;;;;;;33.90;26.30;;;;;;;;;;4949875;28;20235;-86
2022/12/04 00:28:05;;;;;;;28.93;23.90;;;;;;;;;;4951930;28;20264;-83
2022/12/04 00:30:33;;;;;;;35.93;26.60;;;;;;;;;;4955531;28;20265;-87
2022/12/04 00:32:58;;;;;;;34.53;24.13;;;;;;;;;;4930653;28;20313;-82
2022/12/04 00:35:24;;;;;;;38.30;26.90;;;;;;;;;;4932408;28;20233;-83
2022/12/04 00:37:50;;;;;;;34.73;25.43;;;;;;;;;;4968143;28;20249;-83
2022/12/04 00:40:15;;;;;;;34.83;25.93;;;;;;;;;;4963657;28;20325;-84
2022/12/04 00:42:41;;;;;;;34.93;25.73;;;;;;;;;;4962720;28;20229;-84
2022/12/04 00:45:09;;;;;;;38.83;26.30;;;;;;;;;;4967976;28;20236;-83
2022/12/04 00:47:34;;;;;;;33.50;24.37;;;;;;;;;;4929181;29;20227;-86
2022/12/04 00:50:00;;;;;;;37.43;26.60;;;;;;;;;;4977534;28;20605;-82
2022/12/04 00:52:28;;;;;;;36.40;24.57;;;;;;;;;;4937049;28;20233;-86
2022/12/04 00:54:54;;;;;;;34.20;24.57;;;;;;;;;;4981172;28;20229;-87
2022/12/04 00:57:22;;;;;;;33.47;24.00;;;;;;;;;;4937768;28;20292;-86
2022/12/04 00:59:48;;;;;;;33.70;26.47;;;;;;;;;;4962730;28;20253;-85
2022/12/04 01:02:16;;;;;;;31.00;24.63;;;;;;;;;;4946810;28;20233;-86
2022/12/04 01:04:44;;;;;;;32.27;25.17;;;;;;;;;;4922072;29;20235;-85
2022/12/04 01:07:12;;;;;;;31.97;24.47;;;;;;;;;;4978599;28;20234;-84
2022/12/04 01:09:38;;;;;;;33.13;24.77;;;;;;;;;;4946182;28;20261;-87
2022/12/04 01:12:06;;;;;;;33.07;26.10;;;;;;;;;;4956829;28;20226;-85
2022/12/04 01:14:34;;;;;;;32.97;26.60;;;;;;;;;;4944005;28;20230;-87
2022/12/04 01:17:02;;;;;;;34.13;26.43;;;;;;;;;;4940183;28;20219;-87
2022/12/04 01:19:28;;;;;;;38.37;25.37;;;;;;;;;;4976764;28;20226;-87
2022/12/04 01:21:55;;;;;;;32.90;22.67;;;;;;;;;;4961215;28;20612;-83
2022/12/04 01:24:23;;;;;;;32.43;24.60;;;;;;;;;;4963307;28;20238;-88
2022/12/04 01:26:49;;;;;;;37.07;25.40;;;;;;;;;;4956350;28;20643;-86
2022/12/04 01:29:16;;;;;;;32.10;25.10;;;;;;;;;;4964205;28;20236;-87
2022/12/04 01:31:44;;;;;;;34.73;25.43;;;;;;;;;;4940462;28;20236;-86
2022/12/04 01:34:10;;;;;;;34.33;23.37;;;;;;;;;;4956200;28;20226;-85
2022/12/04 01:36:38;;;;;;;33.73;24.40;;;;;;;;;;4944473;28;20592;-86
2022/12/04 01:39:06;;;;;;;32.63;24.43;;;;;;;;;;4955567;28;20712;-87
2022/12/04 01:41:34;;;;;;;31.13;24.63;;;;;;;;;;4956640;28;20222;-89
2022/12/04 01:44:15;;;;;;;32.37;24.53;;;;;;;;;;4948509;28;20231;-86
2022/12/04 01:46:42;;;;;;;31.30;25.30;;;;;;;;;;4959011;28;20229;-87
2022/12/04 01:49:11;;;;;;;34.60;25.10;;;;;;;;;;4947466;28;20257;-86
2022/12/04 01:51:42;;;;;;;32.77;22.63;;;;;;;;;;4929446;28;20222;-84
2022/12/04 01:54:13;;;;;;;34.87;25.47;;;;;;;;;;4952863;28;20604;-86
2022/12/04 01:56:51;;;;;;;32.40;25.57;;;;;;;;;;4959594;28;20225;-85
2022/12/04 01:59:17;;;;;;;31.77;24.53;;;;;;;;;;4958139;28;20235;-87
2022/12/04 02:01:51;;;;;;;32.77;25.73;;;;;;;;;;4960082;28;20241;-87
2022/12/04 02:04:16;;;;;;;30.53;23.87;;;;;;;;;;4953157;28;20226;-87
2022/12/04 02:06:44;;;;;;;30.87;24.57;;;;;;;;;;4923183;29;20234;-83
2022/12/04 02:09:10;;;;;;;32.87;23.30;;;;;;;;;;4973965;28;20222;-84
2022/12/04 02:12:07;;;;;;;32.97;25.70;;;;;;;;;;4941068;28;20300;-87
2022/12/04 02:14:42;;;;;;;32.83;24.13;;;;;;;;;;4930024;28;20229;-85
2022/12/04 02:17:33;;;;;;;32.73;24.20;;;;;;;;;;4975873;28;20229;-84
2022/12/04 02:20:05;;;;;;;33.50;22.87;;;;;;;;;;4974341;28;20261;-83
2022/12/04 02:23:10;;;;;;;38.27;25.00;;;;;;;;;;4959136;28;20589;-88
2022/12/04 02:25:51;;;;;;;33.70;25.23;;;;;;;;;;4975738;28;20222;-85
2022/12/04 02:28:41;;;;;;;34.43;24.63;;;;;;;;;;4944524;28;20306;-88
2022/12/04 02:31:10;;;;;;;29.90;22.23;;;;;;;;;;4981250;28;20238;-85
2022/12/04 02:33:52;;;;;;;34.47;23.87;;;;;;;;;;4969190;28;20633;-87
2022/12/04 02:36:24;;;;;;;34.47;24.63;;;;;;;;;;4954171;28;20214;-88
2022/12/04 02:39:01;;;;;;;33.40;24.97;;;;;;;;;;4918952;28;20581;-85
2022/12/04 02:41:32;;;;;;;37.67;25.03;;;;;;;;;;4966302;28;20224;-88
2022/12/04 02:44:25;;;;;;;35.73;24.93;;;;;;;;;;4938355;28;20309;-86
2022/12/04 02:46:54;;;;;;;35.63;23.17;;;;;;;;;;4931761;29;20235;-88
2022/12/04 02:49:23;;;;;;;41.43;24.47;;;;;;;;;;4973822;28;20226;-87
2022/12/04 02:51:49;;;;;;;32.77;22.57;;;;;;;;;;4917641;28;20244;-85
2022/12/04 02:54:38;;;;;;;33.30;24.30;;;;;;;;;;4930902;28;20718;-88
2022/12/04 02:57:10;;;;;;;34.00;23.67;;;;;;;;;;4932868;28;20436;-85
2022/12/04 02:59:42;;;;;;;41.90;23.97;;;;;;;;;;4928002;28;20301;-86
2022/12/04 03:02:10;;;;;;;36.67;25.23;;;;;;;;;;4954061;28;20668;-85
2022/12/04 03:04:35;;;;;;;35.43;24.23;;;;;;;;;;4930378;28;20248;-85
2022/12/04 03:07:21;;;;;;;37.33;25.57;;;;;;;;;;4933919;28;20722;-86
2022/12/04 03:09:49;;;;;;;33.23;24.17;;;;;;;;;;4973762;28;20234;-87
2022/12/04 03:12:35;;;;;;;34.60;23.60;;;;;;;;;;4922820;28;20226;-87
2022/12/04 03:15:09;;;;;;;34.87;24.20;;;;;;;;;;4949432;28;20308;-86
2022/12/04 03:17:51;;;;;;;35.67;25.07;;;;;;;;;;4941922;28;20304;-85
2022/12/04 03:20:16;;;;;;;32.83;23.77;;;;;;;;;;4957373;28;20261;-88
2022/12/04 03:22:49;;;;;;;35.43;24.60;;;;;;;;;;4934941;28;20229;-84
2022/12/04 03:25:14;;;;;;;36.37;24.20;;;;;;;;;;4929299;28;20295;-88
2022/12/04 03:27:59;;;;;;;34.07;23.67;;;;;;;;;;4941978;28;20226;-86
2022/12/04 03:30:31;;;;;;;33.83;23.10;;;;;;;;;;4922196;28;20299;-88
2022/12/04 03:33:07;;;;;;;35.53;24.80;;;;;;;;;;4980058;28;20335;-83
2022/12/04 03:35:44;;;;;;;38.07;25.33;;;;;;;;;;4961050;28;20240;-86
2022/12/04 03:38:37;;;;;;;42.23;26.00;;;;;;;;;;4981569;28;20729;-86
2022/12/04 03:41:06;;;;;;;35.50;24.37;;;;;;;;;;4969138;28;20227;-82
2022/12/04 03:43:51;;;;;;;30.63;24.10;;;;;;;;;;4923926;28;20226;-86
2022/12/04 03:46:18;;;;;;;36.50;23.07;;;;;;;;;;4951025;28;20225;-82
2022/12/04 03:48:55;;;;;;;31.77;23.33;;;;;;;;;;4952763;28;20242;-87
2022/12/04 03:51:21;;;;;;;35.13;25.70;;;;;;;;;;4928069;28;20231;-89
2022/12/04 03:53:53;;;;;;;35.67;25.03;;;;;;;;;;4984643;28;20226;-86
2022/12/04 03:56:29;;;;;;;32.30;23.63;;;;;;;;;;4918121;28;20258;-86
2022/12/04 03:59:02;;;;;;;33.13;22.20;;;;;;;;;;4968109;28;20237;-88
2022/12/04 04:01:31;;;;;;;34.03;24.17;;;;;;;;;;4946108;28;20228;-87
2022/12/04 04:03:57;;;;;;;36.03;24.03;;;;;;;;;;4932347;28;20234;-86
2022/12/04 04:06:27;;;;;;;34.70;25.27;;;;;;;;;;4925014;28;20283;-88
2022/12/04 04:08:57;;;;;;;30.47;22.90;;;;;;;;;;4935698;28;20240;-88
2022/12/04 04:11:46;;;;;;;34.27;24.13;;;;;;;;;;4923118;28;20223;-86
2022/12/04 04:25:30;;;;;;;35.03;24.40;;;;;;;;;;4958771;28;20218;-87
2022/12/04 04:27:57;;;;;;;34.33;23.60;;;;;;;;;;4958323;28;20214;-87
2022/12/04 04:30:27;;;;;;;35.00;23.70;;;;;;;;;;4938170;28;20225;-88
2022/12/04 04:33:06;;;;;;;32.27;22.60;;;;;;;;;;4956369;28;20230;-89
2022/12/04 04:35:43;;;;;;;33.23;24.97;;;;;;;;;;4955020;28;20661;-88
2022/12/04 04:38:18;;;;;;;27.07;22.70;;;;;;;;;;4963294;28;20233;-86
2022/12/04 04:40:58;;;;;;;29.13;23.20;;;;;;;;;;4955880;28;20238;-87
2022/12/04 04:43:32;;;;;;;34.67;24.60;;;;;;;;;;4926783;28;20217;-86
2022/12/04 04:46:10;;;;;;;35.03;23.87;;;;;;;;;;4991130;28;20627;-86
2022/12/04 04:48:39;;;;;;;30.93;23.43;;;;;;;;;;4928834;28;20232;-88
2022/12/04 04:51:04;;;;;;;28.50;23.27;;;;;;;;;;4931006;28;20222;-87
2022/12/04 04:53:40;;;;;;;31.63;22.73;;;;;;;;;;4936565;28;20572;-87
2022/12/04 04:56:06;;;;;;;35.63;24.33;;;;;;;;;;4943164;28;20232;-88
2022/12/04 04:58:36;;;;;;;29.50;23.23;;;;;;;;;;4969224;28;20226;-81
2022/12/04 05:01:13;;;;;;;33.37;23.77;;;;;;;;;;4968288;28;20229;-87
2022/12/04 05:03:38;;;;;;;29.83;23.10;;;;;;;;;;4921919;28;20219;-89
2022/12/04 05:06:05;;;;;;;32.17;23.63;;;;;;;;;;4910696;28;20230;-86
2022/12/04 05:08:31;;;;;;;33.07;24.67;;;;;;;;;;4960956;28;20229;-87
2022/12/04 05:10:56;;;;;;;33.03;24.07;;;;;;;;;;4929201;28;20226;-84
2022/12/04 05:13:22;;;;;;;33.33;22.87;;;;;;;;;;4941299;28;21322;-85
2022/12/04 05:16:03;;;;;;;36.07;23.97;;;;;;;;;;4921500;29;20238;-85
2022/12/04 05:18:28;;;;;;;30.20;22.70;;;;;;;;;;4945910;28;20240;-86
2022/12/04 05:20:54;;;;;;;32.77;24.17;;;;;;;;;;4951970;28;20234;-86
2022/12/04 05:23:20;;;;;;;32.27;23.53;;;;;;;;;;4946542;28;20253;-88
2022/12/04 05:25:48;;;;;;;32.57;23.83;;;;;;;;;;4939473;28;20258;-87
2022/12/04 05:28:13;;;;;;;30.83;23.20;;;;;;;;;;4932576;28;20218;-86
2022/12/04 05:30:41;;;;;;;32.33;23.80;;;;;;;;;;4944868;28;20218;-88
2022/12/04 05:33:09;;;;;;;30.30;23.13;;;;;;;;;;4931888;28;20751;-88
2022/12/04 05:35:37;;;;;;;35.20;24.90;;;;;;;;;;4939625;28;20336;-86
2022/12/04 05:38:05;;;;;;;32.00;24.13;;;;;;;;;;4936015;28;20251;-86
2022/12/04 05:40:31;;;;;;;35.73;23.77;;;;;;;;;;4916644;29;20235;-86
2022/12/04 05:43:01;;;;;;;30.27;24.17;;;;;;;;;;4932714;28;20223;-88
2022/12/04 05:45:29;;;;;;;30.23;24.07;;;;;;;;;;4935770;29;20222;-87
2022/12/04 05:48:01;;;;;;;31.53;24.07;;;;;;;;;;4936488;28;20229;-86
2022/12/04 05:50:27;;;;;;;33.63;23.33;;;;;;;;;;4952172;28;20233;-87
2022/12/04 05:52:53;;;;;;;32.83;23.23;;;;;;;;;;4973329;28;20241;-87
2022/12/04 05:55:18;;;;;;;34.47;23.63;;;;;;;;;;4939106;28;20237;-88
2022/12/04 05:57:44;;;;;;;30.03;22.77;;;;;;;;;;4909552;29;20234;-85
2022/12/04 06:00:10;;;;;;;29.47;23.50;;;;;;;;;;4936907;28;20226;-87
2022/12/04 06:02:43;;;;;;;33.93;23.27;;;;;;;;;;4961916;28;20253;-82
2022/12/04 06:05:14;;;;;;;29.00;22.97;;;;;;;;;;4957290;28;20267;-86
2022/12/04 06:07:40;;;;;;;29.63;23.03;;;;;;;;;;4919321;29;20223;-87
2022/12/04 06:10:10;;;;;;;30.27;23.00;;;;;;;;;;4956440;28;20221;-86
2022/12/04 06:12:38;;;;;;;29.63;22.83;;;;;;;;;;4909032;29;20219;-84
2022/12/04 06:15:06;;;;;;;32.53;23.93;;;;;;;;;;4960614;28;20230;-85
2022/12/04 06:17:32;;;;;;;30.73;23.27;;;;;;;;;;4960852;28;20304;-86
2022/12/04 06:19:59;;;;;;;33.27;23.17;;;;;;;;;;4933048;29;20234;-87
2022/12/04 06:22:28;;;;;;;35.57;24.63;;;;;;;;;;4940592;28;20229;-87
2022/12/04 06:24:56;;;;;;;32.10;23.63;;;;;;;;;;4960297;28;20527;-87
2022/12/04 06:27:24;;;;;;;29.43;23.37;;;;;;;;;;4958659;28;20218;-88
2022/12/04 06:29:50;;;;;;;32.37;23.60;;;;;;;;;;4943759;28;20321;-87
2022/12/04 06:32:15;;;;;;;31.00;24.07;;;;;;;;;;4926393;28;20226;-88
2022/12/04 06:34:43;;;;;;;32.40;24.20;;;;;;;;;;4927908;28;20257;-85
2022/12/04 06:37:09;;;;;;;30.87;23.90;;;;;;;;;;4945882;28;20257;-86
2022/12/04 06:39:34;;;;;;;30.90;22.77;;;;;;;;;;4944890;28;20240;-88
2022/12/04 06:42:02;;;;;;;31.77;24.03;;;;;;;;;;4945069;28;20229;-88
2022/12/04 06:44:28;;;;;;;38.97;24.70;;;;;;;;;;4945731;28;20261;-88
2022/12/04 06:46:56;;;;;;;29.97;24.30;;;;;;;;;;4920716;29;20245;-86
2022/12/04 06:49:21;;;;;;;26.60;23.07;;;;;;;;;;4951297;28;20210;-85
2022/12/04 06:51:49;;;;;;;29.83;23.73;;;;;;;;;;4943242;28;20229;-88
2022/12/04 06:54:17;;;;;;;32.17;23.90;;;;;;;;;;4957519;28;20238;-89
2022/12/04 06:56:43;;;;;;;30.37;23.50;;;;;;;;;;4935766;28;20313;-87
2022/12/04 06:59:08;;;;;;;30.30;23.73;;;;;;;;;;4920615;28;20239;-88
2022/12/04 07:01:34;;;;;;;32.17;24.50;;;;;;;;;;4955473;28;20241;-85
2022/12/04 07:04:05;;;;;;;34.90;24.27;;;;;;;;;;4955554;28;20214;-83
2022/12/04 07:06:32;;;;;;;30.70;23.80;;;;;;;;;;4948065;28;20232;-86
2022/12/04 07:09:09;;;;;;;32.87;24.47;;;;;;;;;;4931655;28;20304;-87
2022/12/04 07:11:37;;;;;;;30.50;24.03;;;;;;;;;;4954950;28;20233;-85
2022/12/04 07:14:02;;;;;;;34.83;23.90;;;;;;;;;;4930993;28;20241;-87
2022/12/04 07:16:28;;;;;;;36.90;24.93;;;;;;;;;;4950963;28;20225;-88
2022/12/04 07:18:56;;;;;;;30.87;23.60;;;;;;;;;;4917446;29;20606;-88
2022/12/04 07:21:23;;;;;;;30.67;23.57;;;;;;;;;;4948293;28;20226;-84
2022/12/04 07:23:53;;;;;;;31.43;24.37;;;;;;;;;;4966778;28;20217;-88
2022/12/04 07:26:19;;;;;;;33.47;22.70;;;;;;;;;;4929417;28;20609;-86
2022/12/04 07:28:46;;;;;;;32.03;25.07;;;;;;;;;;4938323;28;20218;-86
2022/12/04 07:31:16;;;;;;;33.17;25.33;;;;;;;;;;4925074;28;20225;-86
2022/12/04 07:33:44;;;;;;;29.17;23.20;;;;;;;;;;4922715;29;20715;-84
2022/12/04 07:36:14;;;;;;;34.90;23.70;;;;;;;;;;4972760;28;20299;-88
2022/12/04 07:38:45;;;;;;;31.70;23.30;;;;;;;;;;4944979;28;20264;-86
2022/12/04 07:41:13;;;;;;;33.77;24.30;;;;;;;;;;4941980;28;20222;-88
2022/12/04 07:43:41;;;;;;;35.47;25.27;;;;;;;;;;4947072;28;20238;-86
2022/12/04 07:46:11;;;;;;;32.43;24.63;;;;;;;;;;4969422;28;20318;-86
2022/12/04 07:48:39;;;;;;;33.23;24.40;;;;;;;;;;4969474;28;20219;-87
2022/12/04 07:51:12;;;;;;;38.57;26.27;;;;;;;;;;4952518;28;20570;-86
2022/12/04 07:53:38;;;;;;;32.43;24.20;;;;;;;;;;4968206;28;20233;-85
2022/12/04 07:56:04;;;;;;;32.87;24.10;;;;;;;;;;4955269;28;20230;-86
2022/12/04 07:58:30;;;;;;;37.67;25.70;;;;;;;;;;4929547;28;20300;-85
2022/12/04 08:01:04;;;;;;;31.80;23.57;;;;;;;;;;4961235;28;20230;-87
2022/12/04 08:03:30;;;;;;;30.83;23.97;;;;;;;;;;4940633;28;20230;-87
2022/12/04 08:05:59;;;;;;;30.13;24.77;;;;;;;;;;4924915;28;20238;-86
2022/12/04 08:08:24;;;;;;;38.03;25.10;;;;;;;;;;4946707;28;20305;-87
2022/12/04 08:10:52;;;;;;;33.67;25.50;;;;;;;;;;4918236;28;20226;-85
2022/12/04 08:13:20;;;;;;;34.27;24.37;;;;;;;;;;4930809;28;20230;-86
2022/12/04 08:15:48;;;;;;;29.60;23.57;;;;;;;;;;4946901;28;20305;-85
2022/12/04 08:18:14;;;;;;;31.87;24.60;;;;;;;;;;4938476;28;20218;-86
2022/12/04 08:20:40;;;;;;;29.63;23.60;;;;;;;;;;4932465;28;20222;-85
2022/12/04 08:23:09;;;;;;;37.37;27.33;;;;;;;;;;4954538;28;20229;-85
2022/12/04 08:25:38;;;;;;;34.93;24.93;;;;;;;;;;4930893;28;20241;-85
2022/12/04 08:28:04;;;;;;;33.53;25.27;;;;;;;;;;4944208;28;20594;-82
2022/12/04 08:30:35;;;;;;;34.77;26.53;;;;;;;;;;4910686;28;20234;-85
2022/12/04 08:33:03;;;;;;;35.90;24.83;;;;;;;;;;4957019;28;20222;-85
2022/12/04 08:35:29;;;;;;;36.13;25.17;;;;;;;;;;4942798;29;20237;-86
2022/12/04 08:37:57;;;;;;;34.87;25.53;;;;;;;;;;4954265;28;20231;-82
2022/12/04 08:40:23;;;;;;;33.07;25.37;;;;;;;;;;4943454;28;20609;-86
2022/12/04 08:42:49;;;;;;;33.83;24.77;;;;;;;;;;4913477;29;20226;-82
2022/12/04 08:45:14;;;;;;;32.37;24.27;;;;;;;;;;4962829;28;20218;-86
2022/12/04 08:47:42;;;;;;;32.33;24.60;;;;;;;;;;4929277;28;20218;-84
2022/12/04 08:50:10;;;;;;;34.37;25.33;;;;;;;;;;4909134;28;20219;-81
2022/12/04 08:52:36;;;;;;;29.33;23.53;;;;;;;;;;4923922;29;20222;-85
2022/12/04 08:55:06;;;;;;;39.30;26.40;;;;;;;;;;4952784;28;20371;-83
2022/12/04 08:57:40;;;;;;;31.03;23.93;;;;;;;;;;4916826;28;20223;-82
2022/12/04 09:00:09;;;;;;;33.70;24.70;;;;;;;;;;4931302;28;20290;-82
2022/12/04 09:02:37;;;;;;;35.63;26.53;;;;;;;;;;4944312;28;20229;-85
2022/12/04 09:05:05;;;;;;;36.27;25.87;;;;;;;;;;4938165;28;20236;-84
2022/12/04 09:07:35;;;;;;;32.70;22.40;;;;;;;;;;4954996;28;20302;-82
2022/12/04 09:10:01;;;;;;;32.33;24.53;;;;;;;;;;4917597;28;20227;-88
2022/12/04 09:12:37;;;;;;;33.17;24.57;;;;;;;;;;4921467;29;20693;-83
2022/12/04 09:15:03;;;;;;;38.63;26.47;;;;;;;;;;4929419;29;20238;-86
2022/12/04 09:17:28;;;;;;;31.17;24.80;;;;;;;;;;4954738;28;20223;-87
2022/12/04 09:19:54;;;;;;;35.33;25.20;;;;;;;;;;4933444;29;20234;-86
2022/12/04 09:22:20;;;;;;;34.57;25.67;;;;;;;;;;4930753;28;20230;-83
2022/12/04 09:24:45;;;;;;;37.60;25.30;;;;;;;;;;4948764;23;20613;-85
2022/12/04 09:27:11;;;;;;;34.93;24.73;;;;;;;;;;4939092;28;20225;-86
2022/12/04 09:29:37;;;;;;;36.63;25.83;;;;;;;;;;4921154;29;20237;-85
2022/12/04 09:32:05;;;;;;;34.50;23.70;;;;;;;;;;4937246;28;20643;-84
2022/12/04 09:34:33;;;;;;;42.23;25.97;;;;;;;;;;4915299;29;20247;-85
2022/12/04 09:37:08;;;;;;;40.20;26.13;;;;;;;;;;4915202;28;20232;-85
2022/12/04 09:40:06;;;;;;;34.43;25.50;;;;;;;;;;4892419;29;20236;-86
2022/12/04 09:43:14;;;;;;;34.73;25.30;;;;;;;;;;4920775;29;20309;-84
2022/12/04 09:49:16;;;;;;;33.47;22.90;;;;;;;;;;4959745;23;20225;-77
2022/12/04 09:51:42;;;;;;;42.00;27.77;;;;;;;;;;4922808;29;20257;-76
2022/12/04 09:54:21;;;;;;;35.30;26.30;;;;;;;;;;4921354;28;21678;-78
2022/12/04 09:56:53;;;;;;;37.23;25.20;;;;;;;;;;4907137;29;20333;-76
2022/12/04 09:59:23;;;;;;;37.57;25.37;;;;;;;;;;4912315;29;20239;-74
2022/12/04 10:02:11;;;;;;;32.53;25.67;;;;;;;;;;4898491;28;20305;-74
2022/12/04 10:04:37;;;;;;;36.13;25.20;;;;;;;;;;4936350;29;20226;-75
2022/12/04 10:07:18;;;;;;;32.23;24.20;;;;;;;;;;4908064;28;20214;-75
2022/12/04 10:09:46;;;;;;;34.63;25.63;;;;;;;;;;4917973;29;20253;-76
2022/12/04 10:12:12;;;;;;;38.63;26.43;;;;;;;;;;4921447;29;20313;-76
2022/12/04 10:15:03;;;;;;;34.03;24.90;;;;;;;;;;4935490;29;20329;-77
2022/12/04 10:17:35;;;;;;;33.10;23.23;;;;;;;;;;4900422;29;20293;-76
2022/12/04 10:20:12;;;;;;;36.00;24.33;;;;;;;;;;4918545;29;20231;-77
2022/12/04 10:23:05;;;;;;;27.67;22.77;;;;;;;;;;4950740;29;20623;-77
2022/12/04 10:25:33;;;;;;;34.47;24.60;;;;;;;;;;4917613;29;20215;-77
2022/12/04 10:28:07;;;;;;;34.67;24.73;;;;;;;;;;4920202;29;20245;-76
2022/12/04 10:30:33;;;;;;;33.40;24.73;;;;;;;;;;4905370;29;20231;-76
2022/12/04 10:33:16;;;;;;;32.27;24.70;;;;;;;;;;4904968;29;20602;-76
2022/12/04 10:35:45;;;;;;;33.87;25.77;;;;;;;;;;4905142;29;20227;-75
2022/12/04 10:38:35;;;;;;;38.97;27.43;;;;;;;;;;4933925;29;20222;-75
2022/12/04 10:41:27;;;;;;;33.70;24.53;;;;;;;;;;4922929;28;20636;-76
2022/12/04 10:43:53;;;;;;;28.40;21.80;;;;;;;;;;4893149;29;20219;-76
2022/12/04 10:46:31;;;;;;;30.60;23.73;;;;;;;;;;4934712;29;20277;-75
2022/12/04 10:49:05;;;;;;;34.23;25.40;;;;;;;;;;4908589;29;20274;-75
2022/12/04 10:51:38;;;;;;;38.17;25.17;;;;;;;;;;4916221;29;20225;-75
2022/12/04 10:54:15;;;;;;;36.13;25.40;;;;;;;;;;4899939;29;20274;-75
2022/12/04 10:56:54;;;;;;;30.70;23.40;;;;;;;;;;4912989;29;20253;-76
2022/12/04 10:59:23;;;;;;;34.57;25.70;;;;;;;;;;4900678;29;20255;-76
2022/12/04 11:01:49;;;;;;;35.07;23.77;;;;;;;;;;4900777;29;20222;-76
2022/12/04 11:04:23;;;;;;;32.23;25.10;;;;;;;;;;4891263;29;20254;-74
2022/12/04 11:07:02;;;;;;;33.07;26.03;;;;;;;;;;4886294;28;20235;-75
2022/12/04 11:09:28;;;;;;;31.70;24.57;;;;;;;;;;4918705;29;20688;-76
2022/12/04 11:12:19;;;;;;;32.57;23.47;;;;;;;;;;4903162;28;20235;-77
2022/12/04 11:14:44;;;;;;;32.73;23.63;;;;;;;;;;4890436;29;20234;-77
2022/12/04 11:17:15;;;;;;;28.53;23.07;;;;;;;;;;4922352;29;20286;-78
2022/12/04 11:19:41;;;;;;;31.40;23.40;;;;;;;;;;4907594;29;20712;-79
2022/12/04 11:22:15;;;;;;;31.37;23.43;;;;;;;;;;4919820;29;20215;-80
2022/12/04 11:24:41;;;;;;;28.67;22.33;;;;;;;;;;4918890;29;20231;-78
2022/12/04 11:27:15;;;;;;;30.23;23.33;;;;;;;;;;4903935;29;20648;-75
2022/12/04 11:29:45;;;;;;;31.23;22.70;;;;;;;;;;4933820;29;20233;-77
2022/12/04 11:32:22;;;;;;;35.47;25.58;;;;;;;;;;4904799;28;20443;-77
2022/12/04 11:34:50;;;;;;;31.93;24.47;;;;;;;;;;4920757;29;20230;-77
2022/12/04 11:37:25;;;;;;;38.30;25.07;;;;;;;;;;4903501;29;20234;-78
2022/12/04 11:39:55;;;;;;;33.30;24.27;;;;;;;;;;4911752;28;20227;-79
2022/12/04 11:42:30;;;;;;;46.15;35.53;;;;;;;;;;4920623;29;20973;-79
2022/12/04 11:45:00;;;;;;;32.43;25.10;;;;;;;;;;4906026;29;20646;-79
2022/12/04 11:47:31;;;;;;;30.53;24.37;;;;;;;;;;4919937;29;20285;-78
2022/12/04 11:50:17;;;;;;;34.17;25.70;;;;;;;;;;4891138;28;20286;-71
2022/12/04 11:52:49;;;;;;;29.60;22.27;;;;;;;;;;4910163;29;20566;-78
2022/12/04 11:55:24;;;;;;;31.07;22.63;;;;;;;;;;4918182;29;20215;-79
2022/12/04 11:57:58;;;;;;;33.67;23.60;;;;;;;;;;4905350;29;20255;-78
2022/12/04 12:00:26;;;;;;;37.17;24.77;;;;;;;;;;4922481;29;20246;-78
2022/12/04 12:03:12;;;;;;;34.17;24.53;;;;;;;;;;4926070;29;20238;-78
2022/12/04 12:06:03;;;;;;;34.03;25.10;;;;;;;;;;4925251;29;20223;-78
2022/12/04 12:08:55;;;;;;;33.93;26.10;;;;;;;;;;4926676;28;20228;-78
2022/12/04 12:11:23;;;;;;;33.33;22.00;;;;;;;;;;4911798;29;20305;-78
2022/12/04 12:14:26;;;;;;;36.43;25.83;;;;;;;;;;4927681;29;20230;-78
2022/12/04 12:17:03;;;;;;;30.33;23.30;;;;;;;;;;4943292;29;20288;-76
2022/12/04 12:19:35;;;;;;;34.73;24.47;;;;;;;;;;4932873;29;20230;-74
2022/12/04 12:22:12;;;;;;;31.10;23.00;;;;;;;;;;4936225;28;20227;-75
2022/12/04 12:24:47;;;;;;;34.00;24.60;;;;;;;;;;4907971;29;20223;-75
2022/12/04 12:27:55;;;;;;;29.13;22.73;;;;;;;;;;4934507;29;20226;-74
2022/12/04 12:30:22;;;;;;;35.53;25.40;;;;;;;;;;4946914;28;20249;-75
2022/12/04 12:33:06;;;;;;;30.30;19.60;;;;;;;;;;4901672;29;20230;-74
2022/12/04 12:36:11;;;;;;;31.60;23.77;;;;;;;;;;4931522;29;20258;-77
2022/12/04 12:38:50;;;;;;;29.43;22.63;;;;;;;;;;4911037;28;20234;-76
2022/12/04 12:41:23;;;;;;;33.67;22.13;;;;;;;;;;4916512;29;20309;-76
2022/12/04 12:44:24;;;;;;;35.10;24.03;;;;;;;;;;4947163;28;20231;-76
2022/12/04 12:46:55;;;;;;;34.17;24.67;;;;;;;;;;4908752;28;20239;-76
2022/12/04 12:49:20;;;;;;;30.90;21.17;;;;;;;;;;4916490;29;20234;-76
2022/12/04 12:52:00;;;;;;;30.60;23.27;;;;;;;;;;4948818;29;20732;-77
2022/12/04 12:54:54;;;;;;;38.47;24.83;;;;;;;;;;4901910;29;20325;-76
2022/12/04 12:57:44;;;;;;;28.60;22.60;;;;;;;;;;4932665;29;20306;-75
2022/12/04 13:00:21;;;;;;;30.20;22.30;;;;;;;;;;4917361;29;20250;-77
2022/12/04 13:02:57;;;;;;;38.97;24.33;;;;;;;;;;4898910;29;20934;-77
2022/12/04 13:05:33;;;;;;;35.30;23.67;;;;;;;;;;4902420;29;20688;-77
2022/12/04 13:08:12;;;;;;;30.37;23.37;;;;;;;;;;4899116;28;20301;-77
2022/12/04 13:10:41;;;;;;;31.80;23.90;;;;;;;;;;4934064;29;20234;-77
2022/12/04 13:13:15;;;;;;;29.80;21.87;;;;;;;;;;4917302;29;20297;-77
2022/12/04 13:15:47;;;;;;;34.40;22.87;;;;;;;;;;4935146;29;20222;-77
2022/12/04 13:18:55;;;;;;;27.97;23.20;;;;;;;;;;4917826;28;20637;-77
2022/12/04 13:21:31;;;;;;;28.90;21.57;;;;;;;;;;4933917;29;20214;-77
2022/12/04 13:24:35;;;;;;;31.77;22.47;;;;;;;;;;4913510;29;20716;-77
2022/12/04 13:27:06;;;;;;;35.13;23.17;;;;;;;;;;4950720;28;20218;-76
2022/12/04 13:29:55;;;;;;;29.10;23.57;;;;;;;;;;4934344;29;20727;-77
2022/12/04 13:32:43;;;;;;;29.23;22.93;;;;;;;;;;4919486;29;20214;-77
2022/12/04 13:35:19;;;;;;;30.70;23.70;;;;;;;;;;4934837;29;20701;-77
2022/12/04 13:37:51;;;;;;;33.97;23.60;;;;;;;;;;4936915;29;20377;-76
2022/12/04 13:40:30;;;;;;;28.13;22.57;;;;;;;;;;4936224;28;20739;-76
2022/12/04 13:43:15;;;;;;;29.77;23.67;;;;;;;;;;4909981;29;20269;-76
2022/12/04 13:45:40;;;;;;;31.97;25.37;;;;;;;;;;4933764;29;20230;-77
2022/12/04 13:48:07;;;;;;;35.70;23.87;;;;;;;;;;4906153;28;20237;-76
2022/12/04 13:50:39;;;;;;;31.73;24.50;;;;;;;;;;4935915;29;20329;-77
2022/12/04 13:53:05;;;;;;;32.73;24.03;;;;;;;;;;4936230;28;20231;-79
2022/12/04 13:55:34;;;;;;;35.03;24.50;;;;;;;;;;4918047;29;20253;-77
2022/12/04 13:58:12;;;;;;;29.53;23.00;;;;;;;;;;4936949;29;20230;-77
2022/12/04 14:00:41;;;;;;;29.40;22.53;;;;;;;;;;4950855;28;20289;-76
2022/12/04 14:03:54;;;;;;;31.87;23.33;;;;;;;;;;4933159;28;20226;-80
2022/12/04 14:06:24;;;;;;;30.07;23.67;;;;;;;;;;4876249;29;20236;-76
2022/12/04 14:08:57;;;;;;;31.03;23.67;;;;;;;;;;4876429;29;20234;-77
2022/12/04 14:11:23;;;;;;;28.43;21.43;;;;;;;;;;4922086;28;20230;-76
2022/12/04 14:13:48;;;;;;;31.73;23.50;;;;;;;;;;4941404;28;20231;-76
2022/12/04 14:16:17;;;;;;;31.60;23.57;;;;;;;;;;4967462;28;20234;-76
2022/12/04 14:19:03;;;;;;;31.47;23.93;;;;;;;;;;4944660;28;20918;-77
2022/12/04 14:21:45;;;;;;;28.93;23.10;;;;;;;;;;4934827;29;20237;-76
2022/12/04 14:24:36;;;;;;;26.83;23.00;;;;;;;;;;4946586;28;20234;-76
2022/12/04 14:27:29;;;;;;;30.13;24.70;;;;;;;;;;4934200;29;20227;-77
2022/12/04 14:29:55;;;;;;;31.77;23.93;;;;;;;;;;4952605;28;20325;-76
2022/12/04 14:32:22;;;;;;;30.57;23.77;;;;;;;;;;4911277;29;20309;-77
2022/12/04 14:34:48;;;;;;;31.50;23.47;;;;;;;;;;4902682;29;20866;-77
2022/12/04 14:37:24;;;;;;;29.10;23.37;;;;;;;;;;4917702;29;20220;-77
2022/12/04 14:39:50;;;;;;;27.17;22.43;;;;;;;;;;4918573;29;20234;-74
2022/12/04 14:42:24;;;;;;;28.80;23.27;;;;;;;;;;4903079;29;20277;-76
2022/12/04 14:44:56;;;;;;;29.07;23.40;;;;;;;;;;4919987;28;20692;-79
2022/12/04 14:47:42;;;;;;;37.77;22.73;;;;;;;;;;4903854;29;20219;-77
2022/12/04 14:50:14;;;;;;;31.40;23.03;;;;;;;;;;4933443;29;20615;-77
2022/12/04 14:52:49;;;;;;;31.63;25.17;;;;;;;;;;4935645;29;20708;-77
2022/12/04 14:55:20;;;;;;;31.47;22.57;;;;;;;;;;4920454;29;20274;-75
2022/12/04 14:58:28;;;;;;;34.40;25.03;;;;;;;;;;4933082;29;20227;-77
2022/12/04 15:00:52;;;;;;;30.60;23.33;;;;;;;;;;4936962;29;20245;-76